Time;durP1;ratioP1;P1;durP2;ratioP2;P2;SDS_P1;SDS_P2;PMS_P1;PMS_P2;Temp;Humidity;BMP_temperature;BMP_pressure;BME280_temperature;BME280_humidity;BME280_pressure;Samples;Min_cycle;Max_cycle;Signal;HPM_P1;HPM_P2
2021/04/11 00:00:13;;;;;;;4.33;3.50;;;10.50;99.90;;;;;;5045517;28;20937;-80
2021/04/11 00:02:39;;;;;;;6.60;4.30;;;10.50;99.90;;;;;;5052855;28;20537;-77
2021/04/11 00:05:10;;;;;;;4.90;4.20;;;10.50;99.90;;;;;;5052014;28;20470;-79
2021/04/11 00:07:38;;;;;;;5.07;4.67;;;10.40;99.90;;;;;;5053555;28;20947;-80
2021/04/11 00:10:10;;;;;;;4.63;4.27;;;10.30;99.90;;;;;;5035434;28;20472;-79
2021/04/11 00:12:36;;;;;;;4.60;4.20;;;10.30;99.90;;;;;;5051729;28;20512;-79
2021/04/11 00:15:05;;;;;;;4.57;4.03;;;10.30;99.90;;;;;;5044557;28;20464;-81
2021/04/11 00:17:31;;;;;;;4.63;4.23;;;10.30;99.90;;;;;;5050171;28;20420;-79
2021/04/11 00:19:58;;;;;;;8.03;4.30;;;10.30;99.90;;;;;;5051653;28;20537;-80
2021/04/11 00:22:24;;;;;;;5.37;4.87;;;10.20;99.90;;;;;;5050289;28;20766;-80
2021/04/11 00:24:51;;;;;;;4.90;4.40;;;10.30;99.90;;;;;;5032152;28;20957;-79
2021/04/11 00:27:17;;;;;;;4.33;3.93;;;10.40;99.90;;;;;;5045802;28;20529;-78
2021/04/11 00:29:44;;;;;;;6.73;4.53;;;10.50;99.90;;;;;;5048358;28;20550;-79
2021/04/11 00:32:10;;;;;;;5.30;4.40;;;10.60;99.90;;;;;;5061167;28;20976;-78
2021/04/11 00:34:37;;;;;;;4.70;4.30;;;10.70;99.90;;;;;;5052620;28;20812;-78
2021/04/11 00:37:04;;;;;;;6.63;4.50;;;10.60;99.90;;;;;;5050772;28;20473;-78
2021/04/11 00:39:31;;;;;;;6.80;3.90;;;10.60;99.90;;;;;;5040059;28;20537;-80
2021/04/11 00:42:04;;;;;;;5.07;4.57;;;10.60;99.90;;;;;;5042409;28;20469;-79
2021/04/11 00:44:31;;;;;;;4.27;3.87;;;10.60;99.90;;;;;;5031929;28;20494;-81
2021/04/11 00:46:59;;;;;;;4.50;4.10;;;10.60;99.90;;;;;;5023430;28;20473;-79
2021/04/11 00:49:38;;;;;;;5.77;4.47;;;10.50;99.90;;;;;;5041440;28;20452;-78
2021/04/11 00:52:07;;;;;;;5.17;4.67;;;10.50;99.90;;;;;;5042095;28;20470;-78
2021/04/11 00:54:35;;;;;;;3.90;3.60;;;10.60;99.90;;;;;;5050984;28;20455;-78
2021/04/11 00:57:04;;;;;;;7.40;3.33;;;10.60;99.90;;;;;;5050945;28;20470;-79
2021/04/11 00:59:31;;;;;;;4.40;3.57;;;10.60;99.90;;;;;;5048946;28;20567;-81
2021/04/11 01:01:57;;;;;;;4.20;3.57;;;10.50;99.90;;;;;;5039502;28;20549;-77
2021/04/11 01:04:24;;;;;;;3.90;3.53;;;10.60;99.90;;;;;;5052322;28;20486;-81
2021/04/11 01:07:03;;;;;;;2.40;2.20;;;10.70;99.90;;;;;;5051525;28;20475;-79
2021/04/11 01:09:45;;;;;;;2.77;2.50;;;10.70;99.90;;;;;;5039148;28;20462;-81
2021/04/11 01:12:18;;;;;;;3.40;2.43;;;10.80;99.90;;;;;;5034460;28;20493;-81
2021/04/11 01:14:46;;;;;;;1.70;1.60;;;10.80;99.90;;;;;;5046332;28;21084;-81
2021/04/11 01:17:21;;;;;;;1.77;1.47;;;10.90;99.90;;;;;;5030989;28;20455;-81
2021/04/11 01:19:52;;;;;;;2.90;1.70;;;10.90;99.90;;;;;;5035810;28;20959;-81
2021/04/11 01:22:51;;;;;;;2.27;1.97;;;10.80;99.90;;;;;;5045483;28;20524;-81
2021/04/11 01:25:21;;;;;;;3.97;1.83;;;10.80;99.90;;;;;;5038367;28;20463;-84
2021/04/11 01:27:55;;;;;;;2.30;1.63;;;10.70;99.90;;;;;;5052425;28;20488;-83
2021/04/11 01:30:26;;;;;;;2.20;2.00;;;10.70;99.90;;;;;;5049852;28;20459;-84
2021/04/11 01:32:54;;;;;;;2.63;1.40;;;10.70;99.90;;;;;;5050744;28;20435;-82
2021/04/11 01:35:25;;;;;;;2.00;1.80;;;10.60;99.90;;;;;;5051358;28;20467;-83
2021/04/11 01:37:56;;;;;;;1.80;1.67;;;10.60;99.90;;;;;;5042966;28;20464;-86
2021/04/11 01:40:34;;;;;;;1.80;1.70;;;10.50;99.90;;;;;;5021895;28;20529;-83
2021/04/11 01:43:06;;;;;;;1.30;1.20;;;10.50;99.90;;;;;;5050319;28;20801;-83
2021/04/11 01:45:36;;;;;;;2.50;1.10;;;10.40;99.90;;;;;;5030389;28;20955;-85
2021/04/11 01:48:04;;;;;;;2.27;1.20;;;10.40;99.90;;;;;;5050641;28;21005;-85
2021/04/11 01:50:31;;;;;;;1.13;0.90;;;10.40;99.90;;;;;;5050932;28;20470;-84
2021/04/11 01:52:58;;;;;;;1.60;1.00;;;10.50;99.90;;;;;;5048137;28;20558;-83
2021/04/11 01:55:27;;;;;;;1.50;1.17;;;10.40;99.90;;;;;;5019863;28;20466;-82
2021/04/11 01:57:56;;;;;;;1.23;1.10;;;10.50;99.90;;;;;;5033979;28;20450;-84
2021/04/11 02:00:26;;;;;;;1.10;1.00;;;10.50;99.90;;;;;;5029631;28;20513;-86
2021/04/11 02:02:59;;;;;;;8.30;7.50;;;10.70;99.90;;;;;;5043705;28;20459;-83
2021/04/11 02:05:27;;;;;;;9.77;8.70;;;10.50;99.90;;;;;;5051582;28;20459;-85
2021/04/11 02:07:56;;;;;;;9.57;8.65;;;10.40;99.90;;;;;;5051880;28;20865;-84
2021/04/11 02:10:32;;;;;;;11.43;10.33;;;10.20;99.90;;;;;;5041731;28;20247;-84
2021/04/11 02:13:29;;;;;;;11.38;10.18;;;10.10;99.90;;;;;;5052012;28;20546;-83
2021/04/11 02:16:07;;;;;;;12.48;10.35;;;9.90;99.90;;;;;;5049403;28;20656;-87
2021/04/11 02:18:36;;;;;;;11.75;10.60;;;9.70;99.90;;;;;;5050229;28;20546;-82
2021/04/11 02:21:14;;;;;;;12.02;10.23;;;9.60;99.90;;;;;;5051364;28;20221;-84
2021/04/11 02:23:41;;;;;;;12.68;11.40;;;9.30;99.90;;;;;;5048259;28;20270;-81
2021/04/11 02:26:11;;;;;;;11.18;10.05;;;9.10;99.90;;;;;;5013652;28;20258;-81
2021/04/11 02:28:39;;;;;;;10.65;9.55;;;8.90;99.90;;;;;;5047442;28;20192;-81
2021/04/11 02:31:17;;;;;;;14.80;12.75;;;8.80;99.90;;;;;;5048603;28;20270;-83
2021/04/11 02:34:11;;;;;;;10.75;9.60;;;8.80;99.90;;;;;;5030825;28;20213;-84
2021/04/11 02:36:47;;;;;;;13.32;11.02;;;8.70;99.90;;;;;;5045322;28;20303;-84
2021/04/11 02:39:26;;;;;;;11.15;9.38;;;8.60;99.90;;;;;;5044053;28;20227;-85
2021/04/11 02:41:56;;;;;;;11.13;9.50;;;8.50;99.90;;;;;;5048027;28;20255;-82
2021/04/11 02:44:26;;;;;;;10.40;9.10;;;8.50;99.90;;;;;;5031638;28;20693;-87
2021/04/11 02:46:54;;;;;;;7.68;6.97;;;8.40;99.90;;;;;;5032516;28;20270;-84
2021/04/11 02:49:22;;;;;;;8.32;7.50;;;8.40;99.90;;;;;;5049824;28;20209;-85
2021/04/11 02:51:50;;;;;;;7.40;6.53;;;8.30;99.90;;;;;;5032488;28;20220;-85
2021/04/11 02:54:22;;;;;;;6.35;5.47;;;8.20;99.90;;;;;;5046749;28;20209;-86
2021/04/11 02:56:56;;;;;;;8.07;6.10;;;8.20;99.90;;;;;;5042076;28;20220;-84
2021/04/11 02:59:28;;;;;;;7.95;7.15;;;8.10;99.90;;;;;;5063294;28;20487;-83
2021/04/11 03:02:02;;;;;;;6.95;5.85;;;8.10;99.90;;;;;;5045233;28;20236;-90
2021/04/11 03:04:30;;;;;;;7.35;6.10;;;8.10;99.90;;;;;;5048873;28;20221;-83
2021/04/11 03:07:10;;;;;;;7.45;6.30;;;8.10;99.90;;;;;;5049302;28;20233;-87
2021/04/11 03:09:46;;;;;;;6.50;5.90;;;8.10;99.90;;;;;;5048976;28;20222;-86
2021/04/11 03:12:18;;;;;;;7.15;5.65;;;8.10;99.90;;;;;;5050254;28;20282;-85
2021/04/11 03:14:50;;;;;;;6.82;6.07;;;8.00;99.90;;;;;;5035291;28;20311;-85
2021/04/11 03:17:23;;;;;;;6.90;6.20;;;7.90;99.90;;;;;;5054613;28;20239;-85
2021/04/11 03:20:01;;;;;;;6.40;5.50;;;7.80;99.90;;;;;;5052782;28;20295;-86
2021/04/11 03:22:30;;;;;;;6.75;5.85;;;7.80;99.90;;;;;;5051957;28;20250;-84
2021/04/11 03:24:58;;;;;;;5.88;5.28;;;7.70;99.90;;;;;;5037363;28;20208;-88
2021/04/11 03:27:32;;;;;;;6.85;6.15;;;7.70;99.90;;;;;;5053325;28;20225;-87
2021/04/11 03:30:06;;;;;;;6.53;5.47;;;7.70;99.90;;;;;;5052074;28;20220;-85
2021/04/11 03:32:40;;;;;;;6.05;5.45;;;7.70;99.90;;;;;;5053087;28;20226;-85
2021/04/11 03:35:15;;;;;;;6.35;5.65;;;7.70;99.90;;;;;;5052133;28;20570;-85
2021/04/11 03:37:46;;;;;;;6.78;5.75;;;7.70;99.90;;;;;;5052161;28;20271;-82
2021/04/11 03:40:17;;;;;;;7.43;6.18;;;7.70;99.90;;;;;;5035821;28;20224;-84
2021/04/11 03:42:48;;;;;;;6.45;5.45;;;7.70;99.90;;;;;;5036442;28;20246;-82
2021/04/11 03:45:16;;;;;;;5.90;5.30;;;7.70;99.90;;;;;;5051469;28;20220;-85
2021/04/11 03:48:16;;;;;;;5.00;4.50;;;7.70;99.90;;;;;;5053006;28;20220;-85
2021/04/11 03:50:48;;;;;;;4.30;3.60;;;7.60;99.90;;;;;;5035742;28;20320;-87
2021/04/11 03:53:41;;;;;;;4.72;4.32;;;7.60;99.90;;;;;;5052746;28;20211;-83
2021/04/11 03:56:12;;;;;;;5.75;4.95;;;7.50;99.90;;;;;;5030289;28;20219;-84
2021/04/11 03:58:45;;;;;;;5.53;4.60;;;7.50;99.90;;;;;;5052788;28;20219;-83
2021/04/11 04:01:30;;;;;;;5.35;4.40;;;7.50;99.90;;;;;;5051261;28;20228;-85
2021/04/11 04:04:11;;;;;;;5.07;4.63;;;7.50;99.90;;;;;;5032926;28;20649;-85
2021/04/11 04:07:01;;;;;;;5.97;4.30;;;7.50;99.90;;;;;;5049369;28;20220;-84
2021/04/11 04:09:27;;;;;;;4.13;3.72;;;7.50;99.90;;;;;;5048094;28;20192;-84
2021/04/11 04:12:24;;;;;;;4.20;3.80;;;7.40;99.90;;;;;;5067455;28;20563;-85
2021/04/11 04:15:03;;;;;;;4.10;3.70;;;7.30;99.90;;;;;;5049523;28;20213;-85
2021/04/11 04:17:46;;;;;;;5.35;3.95;;;7.20;99.90;;;;;;5052169;28;20196;-86
2021/04/11 04:20:35;;;;;;;4.30;3.92;;;7.10;99.90;;;;;;5051663;28;20246;-86
2021/04/11 04:23:32;;;;;;;4.40;3.67;;;7.00;99.90;;;;;;5046032;28;20200;-87
2021/04/11 04:26:13;;;;;;;4.18;3.60;;;;;;;;;;5012209;28;20262;-83
2021/04/11 04:28:50;;;;;;;4.20;3.75;;;6.90;99.90;;;;;;5052375;28;20694;-86
2021/04/11 04:31:26;;;;;;;4.72;3.95;;;6.80;99.90;;;;;;5034826;28;20312;-84
2021/04/11 04:34:21;;;;;;;6.45;4.45;;;6.80;99.90;;;;;;5051789;28;20204;-87
2021/04/11 04:37:08;;;;;;;4.53;4.03;;;6.70;99.90;;;;;;5035183;28;20751;-80
2021/04/11 04:39:49;;;;;;;4.72;4.32;;;6.70;99.90;;;;;;5040621;28;20198;-85
2021/04/11 04:42:44;;;;;;;5.97;5.38;;;6.60;99.90;;;;;;5025082;28;20220;-83
2021/04/11 04:45:32;;;;;;;4.85;4.43;;;6.50;99.90;;;;;;5051290;28;20485;-83
2021/04/11 04:48:26;;;;;;;5.50;4.93;;;6.40;99.90;;;;;;5052757;28;20239;-80
2021/04/11 04:51:27;;;;;;;5.40;4.90;;;6.40;99.90;;;;;;5051730;28;20248;-83
2021/04/11 04:54:08;;;;;;;6.50;5.43;;;6.40;99.90;;;;;;5048042;28;20574;-85
2021/04/11 04:57:00;;;;;;;4.95;4.45;;;6.40;99.90;;;;;;5051216;28;20706;-82
2021/04/11 04:59:36;;;;;;;4.93;4.43;;;6.40;99.90;;;;;;5047439;28;20212;-82
2021/04/11 05:02:13;;;;;;;4.72;4.32;;;6.40;99.90;;;;;;5035117;28;20315;-86
2021/04/11 05:05:00;;;;;;;5.03;4.25;;;6.40;99.90;;;;;;5050609;28;20208;-85
2021/04/11 05:07:36;;;;;;;4.78;4.32;;;6.40;99.90;;;;;;5051452;28;20200;-85
2021/04/11 05:10:36;;;;;;;5.50;3.50;;;6.40;99.90;;;;;;5019399;28;20216;-85
2021/04/11 05:13:26;;;;;;;4.15;3.75;;;6.40;99.90;;;;;;5033544;28;20307;-86
2021/04/11 05:16:20;;;;;;;4.53;3.80;;;6.30;99.90;;;;;;5046131;28;20208;-86
2021/04/11 05:19:01;;;;;;;5.00;4.13;;;6.20;99.90;;;;;;5051674;28;20208;-86
2021/04/11 05:22:15;;;;;;;5.15;4.07;;;6.20;99.90;;;;;;5021153;28;20219;-85
2021/04/11 05:24:49;;;;;;;5.47;4.95;;;6.10;99.90;;;;;;5046734;28;20209;-83
2021/04/11 05:27:47;;;;;;;5.32;4.82;;;6.10;99.90;;;;;;5036021;28;20188;-81
2021/04/11 05:30:22;;;;;;;6.00;4.47;;;6.00;99.90;;;;;;5047120;28;20225;-88
2021/04/11 05:32:50;;;;;;;5.00;4.50;;;5.90;99.90;;;;;;5052359;28;20239;-85
2021/04/11 05:35:18;;;;;;;4.90;4.50;;;5.90;99.90;;;;;;5051692;28;20524;-84
2021/04/11 05:38:02;;;;;;;4.38;3.97;;;5.90;99.90;;;;;;5052791;28;20181;-85
2021/04/11 05:40:38;;;;;;;4.55;4.15;;;5.80;99.90;;;;;;5034251;28;20680;-86
2021/04/11 05:43:28;;;;;;;4.95;4.53;;;5.80;99.90;;;;;;5050605;28;20246;-86
2021/04/11 05:46:12;;;;;;;5.05;4.40;;;5.80;99.90;;;;;;5035866;28;20224;-85
2021/04/11 05:48:54;;;;;;;8.25;5.22;;;5.80;99.90;;;;;;5049089;28;20212;-86
2021/04/11 05:51:27;;;;;;;6.90;5.05;;;5.70;99.90;;;;;;5052027;28;20787;-85
2021/04/11 05:54:19;;;;;;;7.50;5.70;;;5.70;99.90;;;;;;5039368;28;20746;-89
2021/04/11 05:56:52;;;;;;;5.80;4.97;;;5.70;99.90;;;;;;5032046;28;20221;-84
2021/04/11 05:59:26;;;;;;;7.05;5.18;;;5.70;99.90;;;;;;5049192;28;20201;-86
2021/04/11 06:01:54;;;;;;;7.32;5.38;;;5.80;99.90;;;;;;5034970;28;20354;-86
2021/04/11 06:04:52;;;;;;;8.15;6.60;;;5.70;99.90;;;;;;5050842;28;20228;-83
2021/04/11 06:07:34;;;;;;;5.55;4.95;;;5.70;99.90;;;;;;5048001;28;20560;-86
2021/04/11 06:10:28;;;;;;;6.65;5.13;;;5.70;99.90;;;;;;5014219;28;20263;-83
2021/04/11 06:12:59;;;;;;;5.57;4.25;;;5.70;99.90;;;;;;5042639;28;20701;-86
2021/04/11 06:15:32;;;;;;;4.78;4.28;;;5.50;99.90;;;;;;5040259;28;20307;-85
2021/04/11 06:18:10;;;;;;;5.57;4.88;;;5.50;99.90;;;;;;5044203;28;20192;-82
2021/04/11 06:20:46;;;;;;;4.10;3.70;;;5.50;99.90;;;;;;5034325;28;20298;-86
2021/04/11 06:23:42;;;;;;;7.60;5.00;;;5.60;99.90;;;;;;5027040;28;20283;-86
2021/04/11 06:26:17;;;;;;;6.00;5.38;;;5.60;99.90;;;;;;5047029;28;20267;-85
2021/04/11 06:28:51;;;;;;;4.68;3.88;;;5.60;99.90;;;;;;5031096;28;20211;-87
2021/04/11 06:31:25;;;;;;;6.35;4.80;;;5.50;99.90;;;;;;5046176;28;20598;-84
2021/04/11 06:33:59;;;;;;;6.40;5.03;;;5.50;99.90;;;;;;5048814;28;20204;-83
2021/04/11 06:36:36;;;;;;;5.55;4.30;;;5.50;99.90;;;;;;5051068;28;20239;-85
2021/04/11 06:39:08;;;;;;;5.60;5.05;;;5.50;99.90;;;;;;5045152;28;20209;-86
2021/04/11 06:41:57;;;;;;;4.75;4.25;;;5.50;99.90;;;;;;5043906;28;20220;-86
2021/04/11 06:45:00;;;;;;;5.60;4.32;;;5.50;99.90;;;;;;5047696;28;20731;-84
2021/04/11 06:48:03;;;;;;;5.20;4.25;;;5.50;99.90;;;;;;5053146;28;20633;-87
2021/04/11 06:50:59;;;;;;;5.07;3.70;;;5.40;99.90;;;;;;5037691;28;20220;-85
2021/04/11 06:53:37;;;;;;;4.93;3.70;;;5.40;99.90;;;;;;5050761;28;20746;-84
2021/04/11 06:56:22;;;;;;;3.00;2.70;;;5.30;99.90;;;;;;5059742;28;20661;-84
2021/04/11 06:59:04;;;;;;;3.08;2.80;;;5.20;99.90;;;;;;5038641;28;20204;-85
2021/04/11 07:02:08;;;;;;;4.03;3.45;;;5.20;99.90;;;;;;5053174;28;20272;-85
2021/04/11 07:04:59;;;;;;;3.70;3.15;;;5.20;99.90;;;;;;5055264;28;20670;-83
2021/04/11 07:07:40;;;;;;;3.28;2.92;;;5.10;99.90;;;;;;5053394;28;20270;-81
2021/04/11 07:10:44;;;;;;;4.30;2.78;;;5.20;99.90;;;;;;5052643;28;20277;-85
2021/04/11 07:13:45;;;;;;;3.90;2.90;;;5.20;99.90;;;;;;5053920;28;20723;-84
2021/04/11 07:16:38;;;;;;;3.33;2.80;;;5.20;99.90;;;;;;5013732;28;20299;-85
2021/04/11 07:19:43;;;;;;;3.40;2.65;;;5.20;99.90;;;;;;5034425;28;20193;-86
2021/04/11 07:22:41;;;;;;;4.18;3.08;;;5.20;99.90;;;;;;5035814;28;20283;-85
2021/04/11 07:25:20;;;;;;;3.95;3.30;;;5.20;99.90;;;;;;5040042;28;20225;-86
2021/04/11 07:28:22;;;;;;;4.25;3.60;;;5.20;99.90;;;;;;5040141;28;20250;-85
2021/04/11 07:31:06;;;;;;;2.85;2.60;;;5.20;99.90;;;;;;5032573;28;20255;-82
2021/04/11 07:33:44;;;;;;;3.63;3.20;;;5.30;99.90;;;;;;5047897;28;20251;-85
2021/04/11 07:36:38;;;;;;;3.35;3.05;;;5.30;99.90;;;;;;5036976;28;20219;-85
2021/04/11 07:39:34;;;;;;;4.30;3.50;;;5.20;99.90;;;;;;5053669;28;20189;-86
2021/04/11 07:42:34;;;;;;;5.00;3.65;;;5.20;99.90;;;;;;5052229;28;20224;-80
2021/04/11 07:45:38;;;;;;;4.00;3.50;;;5.20;99.90;;;;;;5039982;28;20217;-82
2021/04/11 07:48:29;;;;;;;4.15;3.03;;;5.20;99.90;;;;;;5034226;28;20212;-83
2021/04/11 07:51:11;;;;;;;3.42;3.05;;;5.10;99.90;;;;;;5050355;28;20228;-83
2021/04/11 07:54:26;;;;;;;4.97;3.60;;;5.10;99.90;;;;;;5050811;28;20542;-83
2021/04/11 07:57:23;;;;;;;3.03;2.42;;;5.10;99.90;;;;;;5017666;28;20228;-81
2021/04/11 08:00:06;;;;;;;2.88;2.58;;;5.10;99.90;;;;;;5046639;28;20233;-82
2021/04/11 08:02:45;;;;;;;3.13;2.70;;;5.10;99.90;;;;;;5033113;28;20216;-84
2021/04/11 08:05:42;;;;;;;2.85;2.65;;;5.10;99.90;;;;;;5048842;28;20235;-82
2021/04/11 08:08:46;;;;;;;3.78;2.75;;;5.10;99.90;;;;;;5048734;28;20217;-83
2021/04/11 08:11:33;;;;;;;2.30;1.92;;;5.10;99.90;;;;;;5034247;28;20640;-84
2021/04/11 08:14:22;;;;;;;2.40;1.75;;;5.00;99.90;;;;;;5052509;28;20208;-81
2021/04/11 08:17:29;;;;;;;1.90;1.60;;;4.90;99.90;;;;;;5021746;28;20682;-82
2021/04/11 08:20:13;;;;;;;2.78;2.17;;;4.80;99.90;;;;;;4945681;28;20305;-80
2021/04/11 08:23:15;;;;;;;6.07;2.97;;;4.80;99.90;;;;;;4956814;28;20305;-83
2021/04/11 08:26:09;;;;;;;2.25;2.00;;;4.80;99.90;;;;;;5019600;28;20602;-82
2021/04/11 08:29:17;;;;;;;2.97;2.67;;;4.80;99.90;;;;;;5040414;28;20228;-82
2021/04/11 08:32:25;;;;;;;3.15;2.53;;;4.80;99.90;;;;;;5015672;28;20220;-85
2021/04/11 08:35:28;;;;;;;2.75;2.25;;;4.80;99.90;;;;;;5065740;28;20215;-83
2021/04/11 08:38:13;;;;;;;2.45;1.92;;;4.90;99.90;;;;;;5049600;28;20205;-82
2021/04/11 08:41:04;;;;;;;3.85;2.35;;;5.00;99.90;;;;;;5052798;28;20251;-82
2021/04/11 08:43:37;;;;;;;2.30;2.10;;;4.90;99.90;;;;;;5051581;28;21860;-82
2021/04/11 08:46:29;;;;;;;2.80;1.98;;;4.90;99.90;;;;;;5037481;28;20790;-83
2021/04/11 08:49:22;;;;;;;3.17;2.50;;;4.80;99.90;;;;;;5052616;28;20189;-80
2021/04/11 08:52:16;;;;;;;2.60;2.35;;;4.90;99.90;;;;;;5033711;28;20221;-81
2021/04/11 08:54:47;;;;;;;3.60;2.55;;;4.90;99.90;;;;;;5061092;28;20204;-80
2021/04/11 08:57:36;;;;;;;3.35;2.47;;;4.90;99.90;;;;;;5052698;28;20212;-85
2021/04/11 09:00:10;;;;;;;2.97;2.42;;;4.90;99.90;;;;;;5035102;28;20224;-81
2021/04/11 09:02:52;;;;;;;2.60;2.20;;;4.90;99.90;;;;;;5048833;28;20691;-85
2021/04/11 09:05:39;;;;;;;2.17;1.98;;;5.00;99.90;;;;;;5050712;28;20239;-81
2021/04/11 09:08:18;;;;;;;2.05;1.80;;;5.00;99.90;;;;;;5030669;28;20213;-85
2021/04/11 09:11:15;;;;;;;3.08;2.15;;;5.00;99.90;;;;;;5042043;28;20570;-82
2021/04/11 09:13:45;;;;;;;3.20;2.22;;;5.00;99.90;;;;;;5031697;28;20283;-82
2021/04/11 09:16:21;;;;;;;1.98;1.77;;;5.00;99.90;;;;;;5059777;28;20307;-84
2021/04/11 09:19:25;;;;;;;2.17;1.88;;;5.10;99.90;;;;;;5035735;28;20211;-83
2021/04/11 09:22:21;;;;;;;1.85;1.75;;;5.10;99.90;;;;;;5050913;28;20231;-85
2021/04/11 09:24:59;;;;;;;2.42;2.10;;;5.10;99.90;;;;;;5046644;28;20291;-82
2021/04/11 09:27:56;;;;;;;3.35;1.95;;;5.10;99.90;;;;;;5051022;28;20220;-81
2021/04/11 09:30:45;;;;;;;2.65;1.65;;;5.20;99.90;;;;;;5024493;28;20231;-86
2021/04/11 09:33:20;;;;;;;2.85;1.40;;;5.20;99.90;;;;;;5047652;28;20227;-84
2021/04/11 09:36:19;;;;;;;3.30;2.40;;;5.10;99.90;;;;;;5049753;28;20701;-82
2021/04/11 09:39:32;;;;;;;2.00;1.80;;;5.00;99.90;;;;;;5028031;28;20281;-80
2021/04/11 09:42:31;;;;;;;2.38;2.17;;;5.00;99.90;;;;;;5050022;28;20228;-83
2021/04/11 09:45:27;;;;;;;2.22;2.03;;;5.00;99.90;;;;;;5033051;28;20667;-83
2021/04/11 09:47:54;;;;;;;2.53;2.28;;;5.10;99.90;;;;;;5045764;28;20212;-82
2021/04/11 09:50:44;;;;;;;2.55;2.33;;;5.10;99.90;;;;;;5034498;28;20216;-81
2021/04/11 09:53:41;;;;;;;2.22;2.03;;;5.20;99.90;;;;;;5049789;28;20588;-82
2021/04/11 09:56:09;;;;;;;2.60;2.40;;;5.30;99.90;;;;;;5039220;28;20739;-80
2021/04/11 09:58:38;;;;;;;2.65;2.42;;;5.30;99.90;;;;;;5051514;28;20235;-83
2021/04/11 10:01:34;;;;;;;3.17;2.90;;;5.30;99.90;;;;;;5042792;28;20232;-83
2021/04/11 10:04:12;;;;;;;4.07;2.80;;;5.30;99.90;;;;;;5014384;28;20307;-82
2021/04/11 10:06:50;;;;;;;3.53;2.90;;;5.40;99.90;;;;;;5042142;28;20224;-80
2021/04/11 10:09:35;;;;;;;2.50;2.30;;;5.50;99.90;;;;;;5048256;28;20212;-80
2021/04/11 10:12:38;;;;;;;2.85;1.92;;;5.40;99.90;;;;;;5064312;28;20771;-81
2021/04/11 10:15:10;;;;;;;3.13;2.60;;;5.50;99.90;;;;;;5043286;28;20226;-82
2021/04/11 10:17:57;;;;;;;1.88;1.73;;;5.50;99.90;;;;;;5061564;28;20732;-83
2021/04/11 10:20:44;;;;;;;2.50;2.30;;;5.50;99.90;;;;;;5047365;28;20230;-80
2021/04/11 10:23:30;;;;;;;2.95;2.60;;;5.40;99.90;;;;;;5051139;28;20208;-82
2021/04/11 10:26:12;;;;;;;3.60;2.50;;;5.40;99.90;;;;;;5039932;28;20216;-80
2021/04/11 10:28:48;;;;;;;2.30;2.10;;;5.50;99.90;;;;;;5051030;28;20223;-81
2021/04/11 10:31:37;;;;;;;2.40;2.22;;;5.50;99.90;;;;;;5051996;28;20713;-82
2021/04/11 10:34:26;;;;;;;2.25;2.05;;;5.50;99.90;;;;;;5067037;28;20617;-82
2021/04/11 10:37:22;;;;;;;2.53;2.33;;;5.60;99.90;;;;;;5050314;28;20216;-82
2021/04/11 10:40:15;;;;;;;3.38;2.50;;;5.50;99.90;;;;;;5030889;28;20177;-82
2021/04/11 10:43:21;;;;;;;2.20;2.00;;;5.50;99.90;;;;;;5049074;28;20235;-81
2021/04/11 10:45:53;;;;;;;2.30;2.20;;;5.50;99.90;;;;;;5002333;28;20674;-82
2021/04/11 10:48:51;;;;;;;3.17;2.33;;;5.40;99.90;;;;;;5036145;28;20285;-80
2021/04/11 10:51:50;;;;;;;2.00;1.80;;;5.40;99.90;;;;;;5035001;28;20216;-83
2021/04/11 10:54:29;;;;;;;2.47;2.30;;;5.40;99.90;;;;;;5034466;28;20295;-82
2021/04/11 10:57:41;;;;;;;2.15;1.95;;;5.40;99.90;;;;;;5046532;28;20698;-80
2021/04/11 11:00:30;;;;;;;1.73;1.63;;;5.40;99.90;;;;;;5030835;28;20228;-82
2021/04/11 11:03:26;;;;;;;1.92;1.83;;;5.40;99.90;;;;;;5061152;28;20617;-81
2021/04/11 11:06:17;;;;;;;2.33;2.13;;;5.40;99.90;;;;;;5049151;28;20236;-82
2021/04/11 11:09:20;;;;;;;2.08;1.98;;;5.50;99.90;;;;;;5043632;28;20252;-82
2021/04/11 11:12:44;;;;;;;1.95;1.85;;;5.50;99.90;;;;;;5045407;28;20232;-81
2021/04/11 11:15:46;;;;;;;1.75;1.65;;;5.50;99.90;;;;;;4988820;28;20803;-82
2021/04/11 11:18:23;;;;;;;2.17;2.00;;;5.60;99.90;;;;;;4947113;28;20817;-80
2021/04/11 11:21:16;;;;;;;1.75;1.65;;;5.60;99.90;;;;;;5000513;28;20221;-81
2021/04/11 11:24:04;;;;;;;1.52;1.42;;;5.70;99.90;;;;;;5046113;28;20216;-83
2021/04/11 11:26:52;;;;;;;1.63;1.52;;;5.70;99.90;;;;;;5049000;28;20232;-82
2021/04/11 11:29:37;;;;;;;1.95;1.60;;;5.70;99.90;;;;;;5031872;28;20209;-80
2021/04/11 11:32:03;;;;;;;1.88;1.77;;;5.80;99.90;;;;;;5033206;28;20315;-82
2021/04/11 11:34:51;;;;;;;1.67;1.58;;;5.70;99.90;;;;;;5053468;28;20682;-81
2021/04/11 11:37:23;;;;;;;1.55;1.45;;;5.60;99.90;;;;;;5037080;28;20286;-81
2021/04/11 11:40:16;;;;;;;1.50;1.40;;;5.50;99.90;;;;;;5034116;28;20239;-81
2021/04/11 11:43:11;;;;;;;2.00;1.80;;;5.50;99.90;;;;;;5053506;28;20258;-82
2021/04/11 11:45:53;;;;;;;2.25;1.63;;;5.50;99.90;;;;;;5052578;28;20232;-82
2021/04/11 11:48:38;;;;;;;2.28;2.08;;;5.50;99.90;;;;;;5053030;28;20246;-83
2021/04/11 11:51:33;;;;;;;2.38;2.17;;;5.50;99.90;;;;;;5054415;28;20224;-82
2021/04/11 11:54:11;;;;;;;2.00;1.85;;;5.50;99.90;;;;;;5051806;28;20229;-83
2021/04/11 11:56:57;;;;;;;2.90;2.70;;;5.60;99.90;;;;;;5049131;28;20221;-81
2021/04/11 11:59:27;;;;;;;2.42;2.17;;;5.60;99.90;;;;;;5067043;28;20246;-81
2021/04/11 12:02:19;;;;;;;2.70;2.50;;;5.70;99.90;;;;;;5052419;28;20961;-82
2021/04/11 12:05:01;;;;;;;2.50;2.30;;;5.70;99.90;;;;;;5051659;28;20227;-86
2021/04/11 12:07:55;;;;;;;2.20;2.00;;;5.80;99.90;;;;;;5033500;28;20658;-83
2021/04/11 12:10:31;;;;;;;3.47;3.17;;;5.90;99.90;;;;;;5045168;28;20216;-84
2021/04/11 12:13:26;;;;;;;2.90;2.70;;;5.90;99.90;;;;;;5051487;28;20225;-83
2021/04/11 12:16:10;;;;;;;3.55;2.55;;;5.90;99.90;;;;;;5049628;28;20223;-83
2021/04/11 12:18:49;;;;;;;1.90;1.80;;;6.00;99.90;;;;;;5052107;28;20298;-79
2021/04/11 12:21:45;;;;;;;2.45;2.25;;;6.00;99.90;;;;;;5034961;28;20219;-82
2021/04/11 12:24:20;;;;;;;3.65;2.35;;;6.10;99.90;;;;;;5018384;28;20217;-81
2021/04/11 12:26:50;;;;;;;2.70;2.50;;;6.10;99.90;;;;;;5051801;28;20215;-87
2021/04/11 12:29:21;;;;;;;2.50;2.30;;;6.20;99.90;;;;;;5034681;28;20278;-83
2021/04/11 12:32:10;;;;;;;5.97;3.42;;;6.20;99.90;;;;;;5032913;28;20225;-83
2021/04/11 12:34:49;;;;;;;2.70;2.38;;;6.30;99.90;;;;;;5035961;28;20204;-83
2021/04/11 12:37:43;;;;;;;5.45;2.65;;;6.30;99.90;;;;;;5051438;28;20298;-82
2021/04/11 12:40:13;;;;;;;2.92;2.72;;;6.30;99.90;;;;;;5031188;28;20220;-81
2021/04/11 12:43:24;;;;;;;3.88;2.80;;;6.40;99.90;;;;;;5044370;28;20196;-85
2021/04/11 12:46:05;;;;;;;3.05;2.85;;;6.30;99.90;;;;;;5031186;28;20224;-84
2021/04/11 12:48:58;;;;;;;2.50;2.30;;;6.30;99.90;;;;;;5051648;28;20299;-83
2021/04/11 12:51:41;;;;;;;2.53;2.33;;;6.40;99.90;;;;;;5034956;28;20586;-89
2021/04/11 12:54:16;;;;;;;2.35;2.15;;;6.50;99.90;;;;;;5051386;28;20266;-84
2021/04/11 12:56:53;;;;;;;3.55;2.30;;;6.40;99.90;;;;;;5052446;28;20274;-84
2021/04/11 12:59:25;;;;;;;3.55;3.15;;;6.30;99.90;;;;;;5049267;28;20255;-83
2021/04/11 13:01:57;;;;;;;3.72;3.42;;;6.20;99.90;;;;;;5034389;28;20226;-81
2021/04/11 13:04:45;;;;;;;2.95;2.65;;;6.20;99.90;;;;;;5052107;28;20218;-85
2021/04/11 13:07:49;;;;;;;5.10;3.15;;;6.10;99.90;;;;;;5052674;28;20241;-82
2021/04/11 13:10:26;;;;;;;2.80;2.60;;;6.10;99.90;;;;;;5001036;28;20223;-81
2021/04/11 13:12:59;;;;;;;2.88;2.60;;;6.00;99.90;;;;;;5051331;28;20266;-81
2021/04/11 13:15:44;;;;;;;5.22;3.83;;;6.00;99.90;;;;;;5049762;28;20220;-82
2021/04/11 13:18:49;;;;;;;3.40;3.10;;;6.00;99.90;;;;;;5045000;28;20545;-83
2021/04/11 13:21:21;;;;;;;3.20;3.00;;;6.00;99.90;;;;;;4977543;28;20252;-83
2021/04/11 13:24:17;;;;;;;4.10;3.70;;;6.00;99.90;;;;;;5040179;28;20278;-83
2021/04/11 13:27:03;;;;;;;4.78;3.72;;;6.10;99.90;;;;;;5034172;28;20685;-83
2021/04/11 13:29:46;;;;;;;5.72;3.53;;;6.10;99.90;;;;;;5029955;28;20217;-82
2021/04/11 13:32:12;;;;;;;3.50;3.20;;;6.20;99.90;;;;;;5030935;28;20780;-86
2021/04/11 13:34:43;;;;;;;3.80;3.50;;;6.20;99.90;;;;;;5059190;28;20212;-86
2021/04/11 13:37:14;;;;;;;4.53;4.13;;;6.30;99.90;;;;;;5050776;28;20208;-84
2021/04/11 13:39:43;;;;;;;3.90;3.35;;;6.40;99.90;;;;;;5039980;28;20208;-81
2021/04/11 13:42:43;;;;;;;3.80;3.35;;;6.30;99.90;;;;;;5047765;28;20252;-86
2021/04/11 13:45:16;;;;;;;3.25;3.05;;;6.40;99.90;;;;;;5037605;28;20228;-82
2021/04/11 13:47:58;;;;;;;3.80;3.35;;;6.40;99.90;;;;;;5052068;28;20391;-83
2021/04/11 13:50:56;;;;;;;3.35;3.05;;;6.40;99.90;;;;;;5049762;28;20247;-81
2021/04/11 13:54:00;;;;;;;5.28;3.05;;;6.40;99.90;;;;;;5050615;28;20315;-81
2021/04/11 13:56:40;;;;;;;3.78;3.40;;;6.50;99.90;;;;;;5032928;28;20693;-80
2021/04/11 13:59:18;;;;;;;11.05;4.60;;;6.50;99.90;;;;;;5033777;28;20212;-81
2021/04/11 14:01:49;;;;;;;3.33;3.03;;;6.60;99.90;;;;;;5030627;28;20220;-86
2021/04/11 14:04:24;;;;;;;4.15;2.95;;;6.60;99.90;;;;;;5050062;28;20570;-84
2021/04/11 14:07:01;;;;;;;2.45;2.25;;;6.70;99.90;;;;;;5049372;28;20244;-82
2021/04/11 14:09:55;;;;;;;3.03;2.60;;;6.60;99.90;;;;;;5049454;28;20223;-82
2021/04/11 14:12:38;;;;;;;2.90;2.70;;;6.40;99.90;;;;;;5048577;28;20216;-83